Menu Horizontal
luftaufnahme
Willkommen auf der Webseite der privaten Wetterstation -- Taufkirchen an der Pram -- 48°24'29,52" Nord  <>  13°32'13,20" Ost

Wetterdaten - Donnerstag, 02.04.2020 - Taufkirchen an der Pram     336 m über NN
Wetterdaten: aktuell Donnerstag, 02.04.2020 06:30
Datum Zeit Temp. A. Feuchte A. Luftdruck Regen Wind Sonnenschein UV Solar Windchill Empfang
02.04.2020 06:30 -5,5 °C 91 % 1016,7 hPa 0,0 l/m² 0,0 km/h 0 min 0,0 UV-I 0 W/m² -5,5 °C 100 %
02.04.2020 06:20 -5,6 °C 90 % 1016,7 hPa 0,0 l/m² 0,0 km/h 0 min 0,0 UV-I 0 W/m² -5,6 °C 100 %
02.04.2020 06:10 -5,7 °C 90 % 1016,7 hPa 0,0 l/m² 0,0 km/h 0 min 0,0 UV-I 0 W/m² -5,7 °C 100 %
02.04.2020 06:00 -5,7 °C 90 % 1016,7 hPa 0,0 l/m² 0,0 km/h 0 min 0,0 UV-I 0 W/m² -5,7 °C 100 %
02.04.2020 05:50 -5,6 °C 90 % 1016,7 hPa 0,0 l/m² 0,0 km/h 0 min 0,0 UV-I 0 W/m² -5,6 °C 99 %
02.04.2020 05:40 -5,5 °C 90 % 1016,6 hPa 0,0 l/m² 0,0 km/h 0 min 0,0 UV-I 0 W/m² -5,5 °C 100 %
02.04.2020 05:30 -5,4 °C 90 % 1016,6 hPa 0,0 l/m² 0,0 km/h 0 min 0,0 UV-I 0 W/m² -5,4 °C 100 %
02.04.2020 05:20 -5,3 °C 90 % 1016,7 hPa 0,0 l/m² 0,0 km/h 0 min 0,0 UV-I 0 W/m² -5,3 °C 100 %
02.04.2020 05:10 -5,3 °C 89 % 1016,8 hPa 0,0 l/m² 0,0 km/h 0 min 0,0 UV-I 0 W/m² -5,3 °C 99 %
02.04.2020 05:00 -5,2 °C 89 % 1016,8 hPa 0,0 l/m² 0,0 km/h 0 min 0,0 UV-I 0 W/m² -5,2 °C 100 %
02.04.2020 04:50 -5,2 °C 89 % 1016,7 hPa 0,0 l/m² 0,0 km/h 0 min 0,0 UV-I 0 W/m² -5,2 °C 100 %
02.04.2020 04:40 -5,0 °C 89 % 1016,8 hPa 0,0 l/m² 0,0 km/h 0 min 0,0 UV-I 0 W/m² -5,0 °C 98 %
02.04.2020 04:30 -4,9 °C 89 % 1016,8 hPa 0,0 l/m² 0,0 km/h 0 min 0,0 UV-I 0 W/m² -4,9 °C 100 %
02.04.2020 04:20 -4,7 °C 89 % 1016,7 hPa 0,0 l/m² 0,0 km/h 0 min 0,0 UV-I 0 W/m² -4,7 °C 100 %
02.04.2020 04:10 -4,6 °C 89 % 1016,8 hPa 0,0 l/m² 0,0 km/h 0 min 0,0 UV-I 0 W/m² -4,6 °C 100 %
02.04.2020 04:00 -4,4 °C 90 % 1016,9 hPa 0,0 l/m² 0,0 km/h 0 min 0,0 UV-I 0 W/m² -4,4 °C 100 %
02.04.2020 03:50 -4,4 °C 89 % 1016,9 hPa 0,0 l/m² 0,0 km/h 0 min 0,0 UV-I 0 W/m² -4,4 °C 100 %
02.04.2020 03:40 -4,4 °C 89 % 1017,0 hPa 0,0 l/m² 0,0 km/h 0 min 0,0 UV-I 0 W/m² -4,4 °C 100 %
02.04.2020 03:30 -4,3 °C 89 % 1017,0 hPa 0,0 l/m² 0,0 km/h 0 min 0,0 UV-I 0 W/m² -4,3 °C 100 %
02.04.2020 03:20 -4,3 °C 89 % 1017,0 hPa 0,0 l/m² 0,0 km/h 0 min 0,0 UV-I 0 W/m² -4,3 °C 100 %
02.04.2020 03:10 -4,2 °C 89 % 1017,1 hPa 0,0 l/m² 0,0 km/h 0 min 0,0 UV-I 0 W/m² -4,2 °C 100 %
02.04.2020 03:00 -4,1 °C 89 % 1017,1 hPa 0,0 l/m² 0,0 km/h 0 min 0,0 UV-I 0 W/m² -4,1 °C 100 %
02.04.2020 02:50 -3,9 °C 89 % 1017,2 hPa 0,0 l/m² 0,0 km/h 0 min 0,0 UV-I 0 W/m² -3,9 °C 99 %
02.04.2020 02:40 -3,9 °C 89 % 1017,3 hPa 0,0 l/m² 0,0 km/h 0 min 0,0 UV-I 0 W/m² -3,9 °C 99 %
02.04.2020 02:30 -3,8 °C 88 % 1017,4 hPa 0,0 l/m² 0,0 km/h 0 min 0,0 UV-I 0 W/m² -3,8 °C 100 %
02.04.2020 02:20 -3,8 °C 88 % 1017,5 hPa 0,0 l/m² 0,0 km/h 0 min 0,0 UV-I 0 W/m² -3,8 °C 100 %
02.04.2020 02:10 -3,7 °C 87 % 1017,7 hPa 0,0 l/m² 0,0 km/h 0 min 0,0 UV-I 0 W/m² -3,7 °C 100 %
02.04.2020 02:00 -3,6 °C 87 % 1017,8 hPa 0,0 l/m² 0,0 km/h 0 min 0,0 UV-I 0 W/m² -3,6 °C 100 %
02.04.2020 01:50 -3,4 °C 87 % 1017,8 hPa 0,0 l/m² 0,0 km/h 0 min 0,0 UV-I 0 W/m² -3,4 °C 99 %
02.04.2020 01:40 -3,3 °C 86 % 1017,9 hPa 0,0 l/m² 0,0 km/h 0 min 0,0 UV-I 0 W/m² -3,3 °C 100 %
02.04.2020 01:30 -3,1 °C 87 % 1017,9 hPa 0,0 l/m² 0,0 km/h 0 min 0,0 UV-I 0 W/m² -3,1 °C 100 %
02.04.2020 01:20 -3,1 °C 86 % 1017,9 hPa 0,0 l/m² 0,0 km/h 0 min 0,0 UV-I 0 W/m² -3,1 °C 99 %
02.04.2020 01:10 -3,0 °C 86 % 1018,0 hPa 0,0 l/m² 0,0 km/h 0 min 0,0 UV-I 0 W/m² -3,0 °C 99 %
02.04.2020 01:00 -2,8 °C 85 % 1017,9 hPa 0,0 l/m² 0,0 km/h 0 min 0,0 UV-I 0 W/m² -2,8 °C 99 %
02.04.2020 00:50 -2,6 °C 85 % 1018,1 hPa 0,0 l/m² 0,0 km/h 0 min 0,0 UV-I 0 W/m² -2,6 °C 98 %
02.04.2020 00:40 -2,4 °C 85 % 1018,1 hPa 0,0 l/m² 0,0 km/h 0 min 0,0 UV-I 0 W/m² -2,4 °C 100 %
02.04.2020 00:30 -2,3 °C 84 % 1018,2 hPa 0,0 l/m² 0,0 km/h 0 min 0,0 UV-I 0 W/m² -2,3 °C 100 %
02.04.2020 00:20 -2,2 °C 85 % 1018,1 hPa 0,0 l/m² 0,0 km/h 0 min 0,0 UV-I 0 W/m² -2,2 °C 99 %
02.04.2020 00:10 -2,1 °C 85 % 1018,1 hPa 0,0 l/m² 0,0 km/h 0 min 0,0 UV-I 0 W/m² -2,1 °C 99 %
02.04.2020 00:00 -1,9 °C 84 % 1018,2 hPa 0,0 l/m² 0,0 km/h 0 min 0,0 UV-I 0 W/m² -1,9 °C 99 %
01.04.2020 23:50 -1,8 °C 84 % 1018,2 hPa 0,0 l/m² 0,0 km/h 0 min 0,0 UV-I 0 W/m² -1,8 °C 100 %
01.04.2020 23:40 -1,8 °C 83 % 1018,2 hPa 0,0 l/m² 0,0 km/h 0 min 0,0 UV-I 0 W/m² -1,8 °C 100 %
01.04.2020 23:30 -1,7 °C 81 % 1018,2 hPa 0,0 l/m² 0,0 km/h 0 min 0,0 UV-I 0 W/m² -1,7 °C 100 %
01.04.2020 23:20 -1,5 °C 81 % 1018,3 hPa 0,0 l/m² 0,0 km/h 0 min 0,0 UV-I 0 W/m² -1,5 °C 100 %
01.04.2020 23:10 -1,3 °C 81 % 1018,3 hPa 0,0 l/m² 0,0 km/h 0 min 0,0 UV-I 0 W/m² -1,3 °C 100 %
01.04.2020 23:00 -1,2 °C 81 % 1018,3 hPa 0,0 l/m² 0,0 km/h 0 min 0,0 UV-I 0 W/m² -1,2 °C 99 %
01.04.2020 22:50 -1,1 °C 81 % 1018,4 hPa 0,0 l/m² 0,0 km/h 0 min 0,0 UV-I 0 W/m² -1,1 °C 100 %
01.04.2020 22:40 -0,8 °C 79 % 1018,4 hPa 0,0 l/m² 0,0 km/h 0 min 0,0 UV-I 0 W/m² -0,8 °C 100 %
01.04.2020 22:30 -0,8 °C 79 % 1018,4 hPa 0,0 l/m² 0,0 km/h 0 min 0,0 UV-I 0 W/m² -0,8 °C 98 %
01.04.2020 22:20 -0,6 °C 77 % 1018,4 hPa 0,0 l/m² 0,0 km/h 0 min 0,0 UV-I 0 W/m² -0,6 °C 100 %
01.04.2020 22:10 -0,3 °C 76 % 1018,5 hPa 0,0 l/m² 0,0 km/h 0 min 0,0 UV-I 0 W/m² -0,3 °C 91 %
01.04.2020 22:00 -0,1 °C 76 % 1018,5 hPa 0,0 l/m² 0,0 km/h 0 min 0,0 UV-I 0 W/m² -0,1 °C 100 %
01.04.2020 21:50 0,3 °C 72 % 1018,5 hPa 0,0 l/m² 0,0 km/h 0 min 0,0 UV-I 0 W/m² 0,3 °C 100 %
01.04.2020 21:40 0,8 °C 70 % 1018,4 hPa 0,0 l/m² 0,0 km/h 0 min 0,0 UV-I 0 W/m² 0,8 °C 99 %
01.04.2020 21:30 1,3 °C 67 % 1018,5 hPa 0,0 l/m² 0,0 km/h 0 min 0,0 UV-I 0 W/m² 1,3 °C 100 %
01.04.2020 21:20 1,6 °C 67 % 1018,5 hPa 0,0 l/m² 0,0 km/h 0 min 0,0 UV-I 0 W/m² 1,6 °C 100 %
01.04.2020 21:10 2,2 °C 63 % 1018,5 hPa 0,0 l/m² 0,0 km/h 0 min 0,0 UV-I 0 W/m² 2,2 °C 100 %
01.04.2020 21:00 2,6 °C 63 % 1018,5 hPa 0,0 l/m² 0,0 km/h 0 min 0,0 UV-I 0 W/m² 2,6 °C 100 %
01.04.2020 20:50 3,3 °C 61 % 1018,5 hPa 0,0 l/m² 0,0 km/h 0 min 0,0 UV-I 0 W/m² 3,3 °C 100 %
01.04.2020 20:40 3,9 °C 56 % 1018,4 hPa 0,0 l/m² 0,0 km/h 0 min 0,0 UV-I 0 W/m² 3,9 °C 100 %
01.04.2020 20:30 4,4 °C 53 % 1018,4 hPa 0,0 l/m² 0,0 km/h 0 min 0,0 UV-I 0 W/m² 4,4 °C 100 %
01.04.2020 20:20 4,9 °C 55 % 1018,4 hPa 0,0 l/m² 0,0 km/h 0 min 0,0 UV-I 0 W/m² 4,9 °C 98 %
01.04.2020 20:10 5,5 °C 49 % 1018,3 hPa 0,0 l/m² 0,0 km/h 0 min 0,0 UV-I 0 W/m² 5,5 °C 100 %
01.04.2020 20:00 5,8 °C 50 % 1018,2 hPa 0,0 l/m² 0,0 km/h 0 min 0,0 UV-I 0 W/m² 5,8 °C 100 %
01.04.2020 19:50 6,2 °C 45 % 1018,3 hPa 0,0 l/m² 0,0 km/h 0 min 0,0 UV-I 0 W/m² 6,2 °C 100 %
01.04.2020 19:40 6,3 °C 43 % 1018,2 hPa 0,0 l/m² 0,0 km/h 0 min 0,0 UV-I 5 W/m² 6,3 °C 100 %
01.04.2020 19:30 6,7 °C 44 % 1018,4 hPa 0,0 l/m² 0,0 km/h 0 min 0,0 UV-I 11 W/m² 6,7 °C 100 %
01.04.2020 19:20 6,9 °C 42 % 1018,4 hPa 0,0 l/m² 0,0 km/h 0 min 0,0 UV-I 17 W/m² 6,9 °C 100 %
01.04.2020 19:10 7,2 °C 37 % 1018,5 hPa 0,0 l/m² 0,0 km/h 0 min 0,0 UV-I 23 W/m² 7,2 °C 100 %
01.04.2020 19:00 7,3 °C 38 % 1018,6 hPa 0,0 l/m² 1,4 km/h 0 min 0,0 UV-I 25 W/m² 7,3 °C 100 %
01.04.2020 18:50 7,4 °C 36 % 1018,6 hPa 0,0 l/m² 1,6 km/h 0 min 0,0 UV-I 26 W/m² 7,4 °C 100 %
01.04.2020 18:40 7,6 °C 35 % 1018,7 hPa 0,0 l/m² 0,3 km/h 0 min 0,0 UV-I 29 W/m² 7,6 °C 100 %
01.04.2020 18:30 7,7 °C 35 % 1018,8 hPa 0,0 l/m² 0,6 km/h 0 min 0,0 UV-I 32 W/m² 7,7 °C 100 %
01.04.2020 18:20 7,8 °C 36 % 1018,9 hPa 0,0 l/m² 1,1 km/h 0 min 0,0 UV-I 34 W/m² 7,8 °C 100 %
01.04.2020 18:10 7,9 °C 36 % 1018,9 hPa 0,0 l/m² 2,8 km/h 0 min 0,0 UV-I 37 W/m² 7,9 °C 99 %
01.04.2020 18:00 8,3 °C 36 % 1019,0 hPa 0,0 l/m² 3,6 km/h 0 min 0,0 UV-I 39 W/m² 8,3 °C 100 %
01.04.2020 17:50 8,6 °C 33 % 1019,0 hPa 0,0 l/m² 1,8 km/h 10 min 0,7 UV-I 230 W/m² 8,6 °C 100 %
01.04.2020 17:40 8,8 °C 34 % 1019,0 hPa 0,0 l/m² 0,5 km/h 10 min 0,9 UV-I 316 W/m² 8,8 °C 100 %
01.04.2020 17:30 9,0 °C 34 % 1019,2 hPa 0,0 l/m² 2,8 km/h 10 min 1,1 UV-I 344 W/m² 9,0 °C 99 %
01.04.2020 17:20 9,1 °C 36 % 1019,3 hPa 0,0 l/m² 4,3 km/h 10 min 1,2 UV-I 371 W/m² 9,1 °C 99 %
01.04.2020 17:10 9,2 °C 35 % 1019,4 hPa 0,0 l/m² 2,1 km/h 10 min 1,3 UV-I 399 W/m² 9,2 °C 100 %
01.04.2020 17:00 9,3 °C 35 % 1019,4 hPa 0,0 l/m² 2,5 km/h 10 min 1,5 UV-I 423 W/m² 9,3 °C 100 %
01.04.2020 16:50 9,2 °C 35 % 1019,5 hPa 0,0 l/m² 2,3 km/h 10 min 1,6 UV-I 448 W/m² 9,2 °C 100 %
01.04.2020 16:40 8,9 °C 36 % 1019,7 hPa 0,0 l/m² 4,0 km/h 10 min 1,8 UV-I 469 W/m² 8,9 °C 100 %
01.04.2020 16:30 9,1 °C 38 % 1019,9 hPa 0,0 l/m² 5,4 km/h 10 min 2,0 UV-I 495 W/m² 9,1 °C 91 %
01.04.2020 16:20 9,1 °C 36 % 1020,0 hPa 0,0 l/m² 2,3 km/h 10 min 2,2 UV-I 522 W/m² 9,1 °C 100 %
01.04.2020 16:10 9,4 °C 36 % 1020,2 hPa 0,0 l/m² 3,5 km/h 10 min 2,3 UV-I 544 W/m² 9,4 °C 100 %
01.04.2020 16:00 9,2 °C 37 % 1020,3 hPa 0,0 l/m² 2,5 km/h 10 min 2,5 UV-I 556 W/m² 9,2 °C 100 %
01.04.2020 15:50 9,3 °C 40 % 1020,4 hPa 0,0 l/m² 3,9 km/h 10 min 2,7 UV-I 581 W/m² 9,3 °C 100 %
01.04.2020 15:40 8,8 °C 39 % 1020,6 hPa 0,0 l/m² 2,6 km/h 10 min 2,9 UV-I 596 W/m² 8,8 °C 100 %
01.04.2020 15:30 8,2 °C 42 % 1020,8 hPa 0,0 l/m² 3,8 km/h 10 min 3,1 UV-I 613 W/m² 8,2 °C 100 %
01.04.2020 15:20 8,4 °C 41 % 1021,0 hPa 0,0 l/m² 4,4 km/h 10 min 3,2 UV-I 629 W/m² 8,4 °C 100 %
01.04.2020 15:10 8,2 °C 42 % 1021,1 hPa 0,0 l/m² 4,8 km/h 10 min 3,4 UV-I 644 W/m² 8,2 °C 100 %
01.04.2020 15:00 8,1 °C 43 % 1021,3 hPa 0,0 l/m² 1,8 km/h 10 min 3,6 UV-I 656 W/m² 8,1 °C 100 %
01.04.2020 14:50 8,2 °C 43 % 1021,4 hPa 0,0 l/m² 3,8 km/h 10 min 3,7 UV-I 670 W/m² 8,2 °C 98 %
01.04.2020 14:40 8,3 °C 42 % 1021,6 hPa 0,0 l/m² 6,8 km/h 10 min 3,9 UV-I 682 W/m² 8,0 °C 100 %
01.04.2020 14:30 8,6 °C 44 % 1021,7 hPa 0,0 l/m² 3,8 km/h 10 min 4,0 UV-I 691 W/m² 8,6 °C 99 %
01.04.2020 14:20 7,4 °C 45 % 1021,8 hPa 0,0 l/m² 2,3 km/h 10 min 4,1 UV-I 697 W/m² 7,4 °C 99 %
01.04.2020 14:10 7,5 °C 46 % 1022,1 hPa 0,0 l/m² 6,1 km/h 10 min 4,2 UV-I 700 W/m² 7,5 °C 100 %
01.04.2020 14:00 7,7 °C 45 % 1022,2 hPa 0,0 l/m² 4,9 km/h 10 min 4,3 UV-I 700 W/m² 7,7 °C 100 %
01.04.2020 13:50 7,9 °C 45 % 1022,4 hPa 0,0 l/m² 4,5 km/h 10 min 4,4 UV-I 708 W/m² 7,9 °C 100 %
01.04.2020 13:40 7,4 °C 47 % 1022,6 hPa 0,0 l/m² 4,2 km/h 10 min 4,4 UV-I 706 W/m² 7,4 °C 92 %
01.04.2020 13:30 7,6 °C 46 % 1022,8 hPa 0,0 l/m² 4,7 km/h 10 min 4,5 UV-I 709 W/m² 7,6 °C 100 %
01.04.2020 13:20 7,3 °C 47 % 1022,9 hPa 0,0 l/m² 3,8 km/h 10 min 4,5 UV-I 713 W/m² 7,3 °C 100 %
01.04.2020 13:10 7,0 °C 45 % 1023,0 hPa 0,0 l/m² 4,2 km/h 10 min 4,5 UV-I 715 W/m² 7,0 °C 100 %
01.04.2020 13:00 6,7 °C 47 % 1023,2 hPa 0,0 l/m² 2,3 km/h 10 min 4,4 UV-I 706 W/m² 6,7 °C 100 %
01.04.2020 12:50 6,9 °C 49 % 1023,5 hPa 0,0 l/m² 3,8 km/h 10 min 4,4 UV-I 697 W/m² 6,9 °C 100 %
01.04.2020 12:40 6,7 °C 48 % 1023,6 hPa 0,0 l/m² 4,5 km/h 10 min 4,3 UV-I 693 W/m² 6,7 °C 100 %
01.04.2020 12:30 6,6 °C 50 % 1023,6 hPa 0,0 l/m² 5,3 km/h 10 min 4,3 UV-I 690 W/m² 6,6 °C 100 %
01.04.2020 12:20 6,3 °C 51 % 1023,8 hPa 0,0 l/m² 6,9 km/h 10 min 4,2 UV-I 688 W/m² 5,9 °C 100 %
01.04.2020 12:10 6,1 °C 54 % 1023,9 hPa 0,0 l/m² 5,4 km/h 10 min 4,1 UV-I 680 W/m² 6,1 °C 100 %
01.04.2020 12:00 5,8 °C 54 % 1024,1 hPa 0,0 l/m² 6,6 km/h 10 min 4,0 UV-I 656 W/m² 5,7 °C 100 %
01.04.2020 11:50 5,7 °C 59 % 1024,2 hPa 0,0 l/m² 4,0 km/h 10 min 3,9 UV-I 644 W/m² 5,7 °C 100 %
01.04.2020 11:40 5,2 °C 59 % 1024,4 hPa 0,0 l/m² 6,1 km/h 10 min 3,7 UV-I 628 W/m² 5,2 °C 100 %
01.04.2020 11:30 5,2 °C 63 % 1024,4 hPa 0,0 l/m² 7,0 km/h 10 min 3,5 UV-I 607 W/m² 4,7 °C 100 %
01.04.2020 11:20 4,8 °C 65 % 1024,5 hPa 0,0 l/m² 7,7 km/h 10 min 3,4 UV-I 588 W/m² 3,6 °C 100 %
01.04.2020 11:10 4,6 °C 68 % 1024,6 hPa 0,0 l/m² 6,1 km/h 10 min 3,2 UV-I 572 W/m² 4,6 °C 100 %
01.04.2020 11:00 4,2 °C 71 % 1024,8 hPa 0,0 l/m² 5,2 km/h 10 min 3,0 UV-I 552 W/m² 4,2 °C 100 %
01.04.2020 10:50 3,9 °C 71 % 1024,9 hPa 0,0 l/m² 7,2 km/h 10 min 2,8 UV-I 530 W/m² 3,2 °C 100 %
01.04.2020 10:40 3,7 °C 73 % 1024,9 hPa 0,0 l/m² 5,7 km/h 10 min 2,6 UV-I 510 W/m² 3,7 °C 100 %
01.04.2020 10:30 3,3 °C 75 % 1025,0 hPa 0,0 l/m² 6,5 km/h 10 min 2,5 UV-I 487 W/m² 3,2 °C 100 %
01.04.2020 10:20 3,1 °C 78 % 1025,1 hPa 0,0 l/m² 6,5 km/h 10 min 2,3 UV-I 463 W/m² 3,0 °C 100 %
01.04.2020 10:10 2,6 °C 77 % 1025,2 hPa 0,0 l/m² 8,7 km/h 10 min 2,1 UV-I 437 W/m² 0,5 °C 100 %
01.04.2020 10:00 2,6 °C 79 % 1025,2 hPa 0,0 l/m² 6,6 km/h 10 min 1,9 UV-I 406 W/m² 2,4 °C 100 %
01.04.2020 09:50 2,2 °C 81 % 1025,1 hPa 0,0 l/m² 6,3 km/h 10 min 1,8 UV-I 372 W/m² 2,2 °C 100 %
01.04.2020 09:40 1,8 °C 84 % 1025,2 hPa 0,0 l/m² 7,7 km/h 10 min 1,6 UV-I 347 W/m² 0,5 °C 100 %
01.04.2020 09:30 1,3 °C 85 % 1025,3 hPa 0,0 l/m² 7,2 km/h 10 min 1,4 UV-I 320 W/m² 0,5 °C 100 %
01.04.2020 09:20 1,0 °C 89 % 1025,3 hPa 0,0 l/m² 5,1 km/h 10 min 1,3 UV-I 299 W/m² 1,0 °C 100 %
01.04.2020 09:10 0,4 °C 91 % 1025,3 hPa 0,0 l/m² 1,8 km/h 10 min 1,1 UV-I 284 W/m² 0,4 °C 100 %
01.04.2020 09:00 -0,2 °C 93 % 1025,4 hPa 0,2 l/m² 0,2 km/h 10 min 1,0 UV-I 280 W/m² -0,2 °C 100 %
01.04.2020 08:50 -0,8 °C 94 % 1025,5 hPa 0,2 l/m² 0,0 km/h 10 min 0,9 UV-I 273 W/m² -0,8 °C 100 %
01.04.2020 08:40 -1,6 °C 94 % 1025,5 hPa 0,0 l/m² 0,0 km/h 10 min 0,8 UV-I 217 W/m² -1,6 °C 99 %
01.04.2020 08:30 -2,3 °C 94 % 1025,6 hPa 0,0 l/m² 0,0 km/h 10 min 0,7 UV-I 140 W/m² -2,3 °C 100 %
01.04.2020 08:20 -2,8 °C 94 % 1025,6 hPa 0,0 l/m² 0,0 km/h 10 min 0,6 UV-I 114 W/m² -2,8 °C 100 %
01.04.2020 08:10 -3,2 °C 94 % 1025,7 hPa 0,0 l/m² 0,0 km/h 0 min 0,5 UV-I 95 W/m² -3,2 °C 91 %
01.04.2020 08:00 -3,6 °C 94 % 1025,8 hPa 0,0 l/m² 0,0 km/h 0 min 0,4 UV-I 76 W/m² -3,6 °C 100 %
01.04.2020 07:50 -4,1 °C 94 % 1025,7 hPa 0,0 l/m² 0,0 km/h 0 min 0,0 UV-I 60 W/m² -4,1 °C 100 %
01.04.2020 07:40 -4,2 °C 94 % 1025,7 hPa 0,0 l/m² 0,0 km/h 0 min 0,0 UV-I 47 W/m² -4,2 °C 91 %
01.04.2020 07:30 -4,4 °C 94 % 1025,6 hPa 0,0 l/m² 0,0 km/h 0 min 0,0 UV-I 35 W/m² -4,4 °C 99 %
01.04.2020 07:20 -5,0 °C 93 % 1025,6 hPa 0,0 l/m² 0,0 km/h 0 min 0,0 UV-I 24 W/m² -5,0 °C 100 %
01.04.2020 07:10 -5,2 °C 93 % 1025,6 hPa 0,0 l/m² 0,0 km/h 0 min 0,0 UV-I 12 W/m² -5,2 °C 99 %
01.04.2020 07:00 -5,3 °C 93 % 1025,6 hPa 0,0 l/m² 0,0 km/h 0 min 0,0 UV-I 6 W/m² -5,3 °C 100 %
_ Min-Zeit 06:10 17:50 05:40 - 06:30 - - - 06:10 16:30
Minimum _ -5,7 °C 33 % 1016,6 hPa - 0,0 km/h - - - -5,7 °C 91 %
_ Max-Zeit 16:10 08:50 08:00 08:50 10:10 17:50 13:30 13:10 16:10 06:20
Maximum _ 9,5 °C 94 % 1025,8 hPa 0,2 l/m² 8,7 km/h
O-SO
10 min 4,5 UV-I 715 W/m² 9,4 °C 100 %
Durchschnitt _ 1,2 °C 70 % 1020,7 hPa #0,4 l/m² 1,7 km/h #0 min. 0,0 UV-I 0 W/m² 1,2 °C 99 %